sensor_id;sensor_type;location;lat;lon;timestamp;P1;durP1;ratioP1;P2;durP2;ratioP2
42092;SDS011;28974;50.316;18.960;2022-12-29T00:02:50;29.80;;;11.50;;
42092;SDS011;28974;50.316;18.960;2022-12-29T00:14:50;37.13;;;12.75;;
42092;SDS011;28974;50.316;18.960;2022-12-29T00:27:10;42.00;;;13.70;;
42092;SDS011;28974;50.316;18.960;2022-12-29T00:39:29;44.50;;;14.95;;
42092;SDS011;28974;50.316;18.960;2022-12-29T00:51:49;40.72;;;13.63;;
42092;SDS011;28974;50.316;18.960;2022-12-29T01:03:49;46.22;;;14.85;;
42092;SDS011;28974;50.316;18.960;2022-12-29T01:15:50;40.15;;;16.33;;
42092;SDS011;28974;50.316;18.960;2022-12-29T01:27:52;44.30;;;14.48;;
42092;SDS011;28974;50.316;18.960;2022-12-29T01:39:52;39.20;;;14.70;;
42092;SDS011;28974;50.316;18.960;2022-12-29T01:51:57;37.65;;;13.70;;
42092;SDS011;28974;50.316;18.960;2022-12-29T02:04:00;37.58;;;14.20;;
42092;SDS011;28974;50.316;18.960;2022-12-29T02:52:22;31.80;;;11.82;;
42092;SDS011;28974;50.316;18.960;2022-12-29T03:04:27;25.63;;;8.77;;
42092;SDS011;28974;50.316;18.960;2022-12-29T03:16:41;22.73;;;9.32;;
42092;SDS011;28974;50.316;18.960;2022-12-29T03:28:47;39.70;;;12.02;;
42092;SDS011;28974;50.316;18.960;2022-12-29T03:40:56;20.83;;;9.48;;
42092;SDS011;28974;50.316;18.960;2022-12-29T03:53:00;20.90;;;8.90;;
42092;SDS011;28974;50.316;18.960;2022-12-29T04:05:01;21.63;;;9.63;;
42092;SDS011;28974;50.316;18.960;2022-12-29T04:17:06;19.48;;;8.82;;
42092;SDS011;28974;50.316;18.960;2022-12-29T04:29:07;29.23;;;9.32;;
42092;SDS011;28974;50.316;18.960;2022-12-29T04:41:26;27.75;;;10.70;;
42092;SDS011;28974;50.316;18.960;2022-12-29T04:53:27;33.30;;;13.20;;
42092;SDS011;28974;50.316;18.960;2022-12-29T05:05:28;38.65;;;15.45;;
42092;SDS011;28974;50.316;18.960;2022-12-29T05:17:29;45.97;;;17.60;;
42092;SDS011;28974;50.316;18.960;2022-12-29T05:29:30;30.15;;;13.20;;
42092;SDS011;28974;50.316;18.960;2022-12-29T05:41:31;62.70;;;18.98;;
42092;SDS011;28974;50.316;18.960;2022-12-29T05:54:04;43.25;;;15.95;;
42092;SDS011;28974;50.316;18.960;2022-12-29T06:06:05;40.42;;;13.98;;
42092;SDS011;28974;50.316;18.960;2022-12-29T06:18:05;39.25;;;15.73;;
42092;SDS011;28974;50.316;18.960;2022-12-29T06:30:06;51.47;;;18.23;;
42092;SDS011;28974;50.316;18.960;2022-12-29T06:42:06;59.25;;;21.70;;
42092;SDS011;28974;50.316;18.960;2022-12-29T07:06:23;44.95;;;15.98;;
42092;SDS011;28974;50.316;18.960;2022-12-29T07:18:24;53.55;;;18.75;;
42092;SDS011;28974;50.316;18.960;2022-12-29T07:30:24;50.17;;;19.48;;
42092;SDS011;28974;50.316;18.960;2022-12-29T07:42:24;45.70;;;15.18;;
42092;SDS011;28974;50.316;18.960;2022-12-29T07:54:26;62.67;;;20.35;;
42092;SDS011;28974;50.316;18.960;2022-12-29T08:06:26;39.15;;;16.00;;
42092;SDS011;28974;50.316;18.960;2022-12-29T08:18:26;34.22;;;13.55;;
42092;SDS011;28974;50.316;18.960;2022-12-29T08:30:27;52.85;;;21.50;;
42092;SDS011;28974;50.316;18.960;2022-12-29T08:42:27;51.78;;;19.10;;
42092;SDS011;28974;50.316;18.960;2022-12-29T08:54:31;61.20;;;22.95;;
42092;SDS011;28974;50.316;18.960;2022-12-29T09:06:31;38.92;;;17.60;;
42092;SDS011;28974;50.316;18.960;2022-12-29T09:18:31;47.10;;;19.20;;
42092;SDS011;28974;50.316;18.960;2022-12-29T09:30:32;44.83;;;16.92;;
42092;SDS011;28974;50.316;18.960;2022-12-29T09:42:43;47.47;;;17.08;;
42092;SDS011;28974;50.316;18.960;2022-12-29T09:55:01;43.38;;;16.50;;
42092;SDS011;28974;50.316;18.960;2022-12-29T10:07:11;41.65;;;16.98;;
42092;SDS011;28974;50.316;18.960;2022-12-29T10:43:54;43.90;;;17.83;;
42092;SDS011;28974;50.316;18.960;2022-12-29T10:55:56;45.13;;;16.70;;
42092;SDS011;28974;50.316;18.960;2022-12-29T11:08:02;52.95;;;18.88;;
42092;SDS011;28974;50.316;18.960;2022-12-29T11:32:24;45.08;;;20.25;;
42092;SDS011;28974;50.316;18.960;2022-12-29T11:44:24;54.15;;;19.45;;
42092;SDS011;28974;50.316;18.960;2022-12-29T11:56:33;51.10;;;20.75;;
42092;SDS011;28974;50.316;18.960;2022-12-29T12:08:37;41.80;;;17.92;;
42092;SDS011;28974;50.316;18.960;2022-12-29T12:20:44;37.75;;;14.07;;
42092;SDS011;28974;50.316;18.960;2022-12-29T12:44:50;32.85;;;11.63;;
42092;SDS011;28974;50.316;18.960;2022-12-29T12:57:01;61.78;;;24.02;;
42092;SDS011;28974;50.316;18.960;2022-12-29T13:09:08;54.05;;;20.17;;
42092;SDS011;28974;50.316;18.960;2022-12-29T13:21:24;42.45;;;17.05;;
42092;SDS011;28974;50.316;18.960;2022-12-29T13:46:08;52.10;;;20.27;;
42092;SDS011;28974;50.316;18.960;2022-12-29T13:58:52;42.25;;;15.63;;
42092;SDS011;28974;50.316;18.960;2022-12-29T14:10:54;48.90;;;18.45;;
42092;SDS011;28974;50.316;18.960;2022-12-29T14:23:01;53.15;;;21.40;;
42092;SDS011;28974;50.316;18.960;2022-12-29T14:35:47;75.85;;;30.08;;
42092;SDS011;28974;50.316;18.960;2022-12-29T14:47:50;81.80;;;32.53;;
42092;SDS011;28974;50.316;18.960;2022-12-29T14:59:56;78.30;;;30.73;;
42092;SDS011;28974;50.316;18.960;2022-12-29T15:12:04;90.40;;;32.25;;
42092;SDS011;28974;50.316;18.960;2022-12-29T15:24:05;76.43;;;30.13;;
42092;SDS011;28974;50.316;18.960;2022-12-29T15:36:10;74.38;;;28.15;;
42092;SDS011;28974;50.316;18.960;2022-12-29T15:48:17;62.38;;;25.73;;
42092;SDS011;28974;50.316;18.960;2022-12-29T16:00:25;73.80;;;26.50;;
42092;SDS011;28974;50.316;18.960;2022-12-29T16:12:30;76.43;;;29.23;;
42092;SDS011;28974;50.316;18.960;2022-12-29T16:24:31;80.43;;;31.77;;
42092;SDS011;28974;50.316;18.960;2022-12-29T16:36:33;99.05;;;39.70;;
42092;SDS011;28974;50.316;18.960;2022-12-29T16:48:36;208.10;;;102.38;;
42092;SDS011;28974;50.316;18.960;2022-12-29T17:00:44;92.83;;;39.00;;
42092;SDS011;28974;50.316;18.960;2022-12-29T17:12:46;118.45;;;46.17;;
42092;SDS011;28974;50.316;18.960;2022-12-29T17:24:47;120.72;;;45.75;;
42092;SDS011;28974;50.316;18.960;2022-12-29T17:49:22;138.30;;;53.90;;
42092;SDS011;28974;50.316;18.960;2022-12-29T18:01:22;89.53;;;34.95;;
42092;SDS011;28974;50.316;18.960;2022-12-29T18:13:28;57.65;;;23.98;;
42092;SDS011;28974;50.316;18.960;2022-12-29T18:37:48;66.85;;;25.67;;
42092;SDS011;28974;50.316;18.960;2022-12-29T18:49:48;69.00;;;27.05;;
42092;SDS011;28974;50.316;18.960;2022-12-29T19:01:49;134.95;;;45.22;;
42092;SDS011;28974;50.316;18.960;2022-12-29T19:13:49;54.50;;;23.67;;
42092;SDS011;28974;50.316;18.960;2022-12-29T19:25:50;64.60;;;28.58;;
42092;SDS011;28974;50.316;18.960;2022-12-29T19:37:50;75.00;;;26.85;;
42092;SDS011;28974;50.316;18.960;2022-12-29T19:49:51;65.20;;;27.08;;
42092;SDS011;28974;50.316;18.960;2022-12-29T20:01:51;76.10;;;29.38;;
42092;SDS011;28974;50.316;18.960;2022-12-29T20:13:51;68.63;;;25.90;;
42092;SDS011;28974;50.316;18.960;2022-12-29T20:25:52;71.82;;;24.25;;
42092;SDS011;28974;50.316;18.960;2022-12-29T20:37:53;64.53;;;24.67;;
42092;SDS011;28974;50.316;18.960;2022-12-29T20:49:53;61.28;;;21.05;;
42092;SDS011;28974;50.316;18.960;2022-12-29T21:01:54;45.22;;;19.63;;
42092;SDS011;28974;50.316;18.960;2022-12-29T21:13:55;49.08;;;20.35;;
42092;SDS011;28974;50.316;18.960;2022-12-29T21:25:55;55.83;;;19.98;;
42092;SDS011;28974;50.316;18.960;2022-12-29T21:37:55;56.55;;;23.70;;
42092;SDS011;28974;50.316;18.960;2022-12-29T21:49:56;49.83;;;15.38;;
42092;SDS011;28974;50.316;18.960;2022-12-29T22:01:56;50.00;;;19.08;;
42092;SDS011;28974;50.316;18.960;2022-12-29T22:14:15;61.17;;;23.38;;
42092;SDS011;28974;50.316;18.960;2022-12-29T22:26:15;82.65;;;31.95;;
42092;SDS011;28974;50.316;18.960;2022-12-29T22:38:16;77.80;;;28.20;;
42092;SDS011;28974;50.316;18.960;2022-12-29T22:50:16;46.33;;;19.40;;
42092;SDS011;28974;50.316;18.960;2022-12-29T23:02:16;35.92;;;14.02;;
42092;SDS011;28974;50.316;18.960;2022-12-29T23:14:17;25.27;;;12.00;;
42092;SDS011;28974;50.316;18.960;2022-12-29T23:26:22;30.88;;;13.85;;
42092;SDS011;28974;50.316;18.960;2022-12-29T23:38:22;44.72;;;18.50;;
42092;SDS011;28974;50.316;18.960;2022-12-29T23:50:23;45.95;;;18.77;;
